Time;durP1;ratioP1;P1;durP2;ratioP2;P2;SDS_P1;SDS_P2;PMS_P1;PMS_P2;Temp;Humidity;BMP_temperature;BMP_pressure;BME280_temperature;BME280_humidity;BME280_pressure;Samples;Min_cycle;Max_cycle;Signal;HPM_P1;HPM_P2
2022/06/14 00:01:34;;;;;;;2.02;0.90;;;;;;;12.56;54.78;101147.25;1640438;84;20910;-76
2022/06/14 00:04:02;;;;;;;2.75;1.10;;;;;;;12.53;54.82;101146.44;1635577;86;21434;-76
2022/06/14 00:06:32;;;;;;;2.40;1.07;;;;;;;12.49;54.92;101149.52;1655230;84;20967;-76
2022/06/14 00:08:59;;;;;;;2.62;1.00;;;;;;;12.48;55.00;101152.14;1641363;86;20955;-76
2022/06/14 00:11:31;;;;;;;1.67;0.98;;;;;;;12.45;55.02;101145.29;1670916;84;20951;-76
2022/06/14 00:14:00;;;;;;;3.05;1.10;;;;;;;12.41;55.07;101144.92;1638416;84;20927;-76
2022/06/14 00:16:28;;;;;;;3.42;1.02;;;;;;;12.36;55.17;101145.42;1654420;86;20927;-76
2022/06/14 00:18:55;;;;;;;1.00;0.88;;;;;;;12.32;55.29;101151.54;1666558;86;21022;-76
2022/06/14 00:21:22;;;;;;;2.33;0.98;;;;;;;12.32;55.37;101155.87;1662696;84;26486;-76
2022/06/14 00:23:48;;;;;;;1.47;1.00;;;;;;;12.28;55.41;101146.42;1666962;86;21147;-76
2022/06/14 00:26:16;;;;;;;1.15;0.85;;;;;;;12.25;55.52;101151.20;1666269;86;21585;-76
2022/06/14 00:28:45;;;;;;;1.30;1.20;;;;;;;12.23;55.60;101153.82;1663582;84;21078;-76
2022/06/14 00:31:16;;;;;;;2.52;0.75;;;;;;;12.20;55.62;101155.59;1664222;84;21017;-76
2022/06/14 00:33:47;;;;;;;1.12;0.80;;;;;;;12.18;55.69;101159.51;1665666;84;21154;-76
2022/06/14 00:36:28;;;;;;;;;;;;;;;12.14;55.78;101157.84;1664124;84;21121;-76
2022/06/14 00:38:57;;;;;;;2.47;1.20;;;;;;;12.12;56.48;101162.63;1638329;86;20255;-76
2022/06/14 00:41:44;;;;;;;1.65;1.10;;;;;;;12.08;55.91;101160.95;1667150;86;20970;-76
2022/06/14 00:44:18;;;;;;;2.15;0.98;;;;;;;12.05;55.94;101166.17;1666286;84;21590;-76
2022/06/14 00:47:14;;;;;;;2.22;1.10;;;;;;;11.99;56.03;101170.14;1665429;86;21002;-76
2022/06/14 00:49:58;;;;;;;2.95;0.93;;;;;;;11.95;56.18;101167.20;1666252;84;21522;-76
2022/06/14 00:52:41;;;;;;;1.77;1.10;;;;;;;11.91;56.32;101163.35;1669343;83;21431;-76
2022/06/14 00:55:19;;;;;;;4.12;1.02;;;;;;;11.84;56.32;101161.71;1684266;85;20912;-76
2022/06/14 00:57:57;;;;;;;1.70;1.00;;;;;;;11.82;56.44;101168.65;1671634;83;21085;-76
2022/06/14 01:00:34;;;;;;;1.77;1.32;;;;;;;11.80;56.55;101167.80;1661337;83;21436;-76
2022/06/14 01:03:07;;;;;;;1.82;1.15;;;;;;;11.79;56.61;101166.53;1656235;83;22234;-76
2022/06/14 01:08:26;;;;;;;2.92;1.20;;;;;;;11.78;56.73;101169.56;1682860;83;21705;-76
2022/06/14 01:10:52;;;;;;;1.30;0.80;;;;;;;11.76;56.80;101160.91;1684436;85;20962;-76
2022/06/14 01:13:21;;;;;;;0.98;0.95;;;;;;;11.75;56.90;101170.86;1684599;85;20951;-76
2022/06/14 01:15:56;;;;;;;2.58;1.27;;;;;;;11.71;56.96;101172.20;1679945;83;21486;-76
2022/06/14 01:18:22;;;;;;;1.82;1.10;;;;;;;11.67;56.98;101172.68;1682632;83;20924;-76
2022/06/14 01:20:49;;;;;;;0.80;0.78;;;;;;;11.64;57.12;101166.23;1683777;85;20916;-76
2022/06/14 01:23:17;;;;;;;3.30;0.90;;;;;;;11.63;57.14;101167.11;1687941;83;20979;-76
2022/06/14 01:26:15;;;;;;;3.00;1.30;;;;;;;11.60;57.26;101170.59;1684309;83;21869;-76
2022/06/14 01:28:47;;;;;;;1.67;1.10;;;;;;;11.56;57.31;101171.94;1655879;85;21444;-76
2022/06/14 01:31:16;;;;;;;1.47;0.90;;;;;;;11.57;57.45;101172.36;1681302;83;20975;-76
2022/06/14 01:33:56;;;;;;;4.35;1.10;;;;;;;11.55;57.51;101167.20;1682510;83;20968;-76
2022/06/14 01:36:30;;;;;;;2.02;1.20;;;;;;;11.54;57.53;101170.66;1683186;84;21440;-76
2022/06/14 01:39:00;;;;;;;1.65;1.10;;;;;;;11.53;57.64;101168.09;1681228;83;21345;-76
2022/06/14 01:41:58;;;;;;;2.08;1.10;;;;;;;11.53;57.75;101171.53;1683265;83;21412;-76
2022/06/14 01:45:04;;;;;;;1.87;1.27;;;;;;;11.52;57.74;101180.18;1576662;90;21934;-76
2022/06/14 01:47:57;;;;;;;3.00;1.30;;;;;;;11.45;57.84;101168.17;1577031;89;20983;-76
2022/06/14 01:54:10;;;;;;;3.47;1.17;;;;;;;11.46;58.03;101181.98;1555439;90;21611;-76
2022/06/14 01:57:00;;;;;;;1.95;1.37;;;;;;;11.46;58.10;101182.84;1556416;90;21594;-76
2022/06/14 01:59:53;;;;;;;2.25;1.82;;;;;;;11.45;58.18;101187.59;1584003;90;21652;-76
2022/06/14 02:02:37;;;;;;;3.02;1.40;;;;;;;11.41;58.25;101191.55;1567802;88;21696;-76
2022/06/14 02:05:30;;;;;;;1.98;1.30;;;;;;;11.40;58.29;101193.28;1533161;92;21662;-76
2022/06/14 02:08:19;;;;;;;3.95;1.50;;;;;;;11.39;58.35;101196.75;1556667;92;21540;-76
2022/06/14 02:11:03;;;;;;;4.53;1.50;;;;;;;11.37;58.43;101194.61;1556339;90;21654;-76
2022/06/14 02:13:41;;;;;;;3.45;1.25;;;;;;;11.35;58.49;101193.77;1554961;90;21088;-76
2022/06/14 02:16:37;;;;;;;2.12;1.40;;;;;;;11.33;58.53;101187.75;1575569;90;21633;-76
2022/06/14 02:19:09;;;;;;;2.47;1.60;;;;;;;11.34;58.60;101196.37;1537147;92;21139;-76
2022/06/14 02:21:45;;;;;;;1.52;1.32;;;;;;;11.31;58.65;101201.14;1662694;86;21557;-76
2022/06/14 02:24:19;;;;;;;3.45;1.50;;;;;;;11.28;58.72;101203.33;1667971;84;21519;-76
2022/06/14 02:26:53;;;;;;;1.92;1.45;;;;;;;11.25;58.77;101205.94;1674250;84;21501;-76
2022/06/14 02:29:28;;;;;;;1.57;1.40;;;;;;;11.24;58.81;101205.52;1689450;84;21530;-76
2022/06/14 02:32:17;;;;;;;3.35;1.55;;;;;;;11.23;58.85;101211.56;1643058;84;21547;-76
2022/06/14 02:34:52;;;;;;;1.98;1.40;;;;;;;11.20;58.89;101206.86;1624304;86;21140;-76
2022/06/14 02:37:33;;;;;;;2.87;1.65;;;;;;;11.16;58.92;101208.61;1630929;86;21589;-76
2022/06/14 02:40:10;;;;;;;4.75;1.57;;;;;;;11.12;58.98;101206.92;1615582;88;20942;-76
2022/06/14 02:43:00;;;;;;;3.75;1.60;;;;;;;11.07;59.04;101203.95;1623311;87;21597;-76
2022/06/14 02:45:34;;;;;;;1.80;1.50;;;;;;;11.03;59.18;101211.31;1614744;86;21069;-75
2022/06/14 02:48:15;;;;;;;1.55;1.20;;;;;;;11.04;59.27;101215.63;1612401;86;21620;-75
2022/06/14 02:50:49;;;;;;;1.62;1.50;;;;;;;11.02;59.35;101216.06;1576971;88;21099;-75
2022/06/14 02:53:27;;;;;;;2.47;1.45;;;;;;;11.04;59.38;101222.95;1608862;87;21668;-76
2022/06/14 02:56:08;;;;;;;3.10;1.50;;;;;;;11.02;59.43;101216.92;1608310;89;21662;-76
2022/06/14 02:58:57;;;;;;;2.40;1.50;;;;;;;11.04;59.53;101226.83;1596184;87;21123;-76
2022/06/14 03:01:45;;;;;;;1.85;1.22;;;;;;;11.06;59.59;101222.94;1595581;87;21094;-76
2022/06/14 03:04:28;;;;;;;2.60;1.37;;;;;;;11.07;59.67;101224.66;1609897;89;21396;-76
2022/06/14 03:07:09;;;;;;;2.35;1.65;;;;;;;11.10;59.75;101225.48;1604498;87;21411;-76
2022/06/14 03:09:37;;;;;;;2.27;1.62;;;;;;;11.12;59.79;101225.47;1607596;88;21628;-76
2022/06/14 03:12:24;;;;;;;3.47;1.65;;;;;;;11.13;59.86;101225.89;1609603;87;21479;-76
2022/06/14 03:15:11;;;;;;;4.28;1.50;;;;;;;11.15;59.99;101225.45;1603736;87;20964;-76
2022/06/14 03:17:49;;;;;;;2.22;1.20;;;;;;;11.24;60.12;101222.34;1609492;88;20963;-76
2022/06/14 03:20:38;;;;;;;2.05;1.37;;;;;;;11.35;60.15;101233.91;1602842;87;21423;-76
2022/06/14 03:23:37;;;;;;;2.50;1.12;;;;;;;11.42;60.22;101230.38;1597356;89;21447;-76
2022/06/14 03:26:13;;;;;;;2.55;1.50;;;;;;;11.50;60.28;101230.28;1610209;89;21427;-76
2022/06/14 03:28:45;;;;;;;3.52;1.20;;;;;;;11.54;60.38;101231.53;1608575;87;20916;-76
2022/06/14 03:31:39;;;;;;;3.80;1.37;;;;;;;11.60;60.37;101238.38;1600349;87;20975;-76
2022/06/14 03:34:23;;;;;;;2.40;1.17;;;;;;;11.65;60.58;101239.63;1602366;87;20987;-76
2022/06/14 03:36:52;;;;;;;5.05;2.05;;;;;;;11.66;60.55;101240.91;1600304;87;21523;-77
2022/06/14 03:39:27;;;;;;;2.35;1.42;;;;;;;11.70;60.61;101244.33;1610327;87;20955;-76
2022/06/14 03:41:55;;;;;;;3.37;1.25;;;;;;;11.73;60.65;101243.86;1599873;87;20899;-76
2022/06/14 03:44:27;;;;;;;2.30;1.17;;;;;;;11.76;60.71;101252.03;1609409;89;21435;-76
2022/06/14 03:47:25;;;;;;;1.90;0.95;;;;;;;11.78;60.83;101242.55;1607958;89;21435;-76
2022/06/14 03:50:03;;;;;;;3.00;1.52;;;;;;;11.81;60.83;101247.70;1603144;87;21645;-76
2022/06/14 03:53:00;;;;;;;2.95;1.40;;;;;;;11.84;60.85;101247.66;1596902;87;21489;-76
2022/06/14 03:56:09;;;;;;;3.87;1.35;;;;;;;11.84;60.90;101247.22;1613456;87;21119;-76
2022/06/14 03:58:59;;;;;;;4.60;1.30;;;;;;;11.87;61.01;101247.19;1631853;85;21151;-75
2022/06/14 04:01:39;;;;;;;4.92;1.10;;;;;;;11.87;61.15;101246.33;1645049;85;21046;-75
2022/06/14 04:04:19;;;;;;;3.05;1.42;;;;;;;11.91;61.20;101246.28;1581105;86;21618;-75
2022/06/14 04:06:54;;;;;;;3.67;1.22;;;;;;;12.07;61.42;101240.45;1612097;86;21470;-76
2022/06/14 04:09:44;;;;;;;2.65;1.55;;;;;;;12.41;61.45;101238.73;1618468;86;21030;-76
2022/06/14 04:12:27;;;;;;;2.37;1.10;;;;;;;12.71;61.42;101247.79;1611810;86;21106;-76
2022/06/14 04:15:14;;;;;;;3.62;0.98;;;;;;;12.88;61.34;101248.40;1617046;86;21015;-76
2022/06/14 04:21:00;;;;;;;5.85;1.00;;;;;;;13.08;61.23;101242.86;1619969;86;21098;-76
2022/06/14 04:23:38;;;;;;;2.45;0.90;;;;;;;13.10;61.28;101247.16;1614818;88;21107;-76
2022/06/14 04:26:29;;;;;;;2.50;1.00;;;;;;;13.12;61.32;101250.58;1619436;86;21109;-76
2022/06/14 04:29:02;;;;;;;2.70;1.25;;;;;;;13.12;61.33;101249.28;1615822;86;21078;-77
2022/06/14 04:31:37;;;;;;;3.20;1.20;;;;;;;13.11;61.37;101254.50;1608384;86;21118;-77
2022/06/14 04:34:50;;;;;;;3.50;1.32;;;;;;;13.14;61.42;101251.41;1625169;86;21046;-77
2022/06/14 04:37:40;;;;;;;4.28;1.20;;;;;;;13.13;61.46;101254.89;1614642;86;21054;-75
2022/06/14 04:40:23;;;;;;;3.90;0.93;;;;;;;13.23;61.59;101251.73;1559730;86;5001144;-75
2022/06/14 04:43:09;;;;;;;5.17;1.20;;;;;;;13.32;61.58;101250.73;1627275;85;21273;-75
2022/06/14 04:45:45;;;;;;;4.62;1.20;;;;;;;13.42;61.52;101249.69;1627940;84;21130;-75
2022/06/14 04:48:26;;;;;;;4.05;1.20;;;;;;;13.50;61.58;101251.27;1635139;86;21779;-75
2022/06/14 04:51:07;;;;;;;2.42;0.90;;;;;;;13.62;61.59;101248.00;1621879;87;20971;-76
2022/06/14 04:53:47;;;;;;;1.95;1.00;;;;;;;13.75;61.62;101247.75;1631079;85;20974;-75
2022/06/14 04:56:25;;;;;;;;;;;;;;;13.94;61.61;101248.25;1645696;85;20974;-75
2022/06/14 04:59:00;;;;;;;4.20;1.40;;;;;;;14.17;61.92;101246.02;1641523;85;20449;-76
2022/06/14 05:01:44;;;;;;;3.62;1.00;;;;;;;14.55;61.79;101252.19;1651376;83;20935;-76
2022/06/14 05:04:18;;;;;;;4.67;0.90;;;;;;;15.03;61.73;101250.63;1643114;84;20962;-76
2022/06/14 05:07:04;;;;;;;4.42;1.05;;;;;;;15.62;61.77;101247.78;1635268;85;20902;-76
2022/06/14 05:09:35;;;;;;;3.30;0.95;;;;;;;16.18;61.53;101245.33;1650802;84;20926;-76
2022/06/14 05:12:26;;;;;;;4.60;1.10;;;;;;;16.80;61.47;101253.03;1655609;84;20962;-76
2022/06/14 05:15:13;;;;;;;5.22;1.77;;;;;;;17.44;61.32;101259.59;1641631;86;20915;-76
2022/06/14 05:17:53;;;;;;;3.55;0.90;;;;;;;17.93;60.89;101255.27;1608198;87;21066;-76
2022/06/14 05:20:34;;;;;;;2.77;1.00;;;;;;;18.45;61.07;101254.61;1643352;84;20974;-76
2022/06/14 05:23:17;;;;;;;7.33;1.35;;;;;;;19.00;60.75;101256.38;1671552;84;21321;-76
2022/06/14 05:26:01;;;;;;;4.00;1.85;;;;;;;19.46;60.15;101256.61;1658563;84;21826;-76
2022/06/14 05:28:39;;;;;;;3.95;1.10;;;;;;;19.87;60.29;101256.59;1656512;84;21651;-76
2022/06/14 05:31:34;;;;;;;5.25;1.05;;;;;;;20.18;59.93;101260.86;1653132;85;21403;-76
2022/06/14 05:34:32;;;;;;;2.58;1.05;;;;;;;20.38;59.86;101259.95;1647960;84;20999;-76
2022/06/14 05:37:34;;;;;;;3.77;1.17;;;;;;;20.67;59.66;101263.38;1676380;83;21503;-76
2022/06/14 05:40:25;;;;;;;2.85;0.80;;;;;;;21.01;59.28;101257.32;1656262;83;21151;-76
2022/06/14 05:43:17;;;;;;;3.80;1.25;;;;;;;21.39;59.27;101254.56;1610377;88;21049;-76
2022/06/14 05:45:58;;;;;;;2.98;0.90;;;;;;;21.71;58.54;101255.08;1601271;86;21065;-76
2022/06/14 05:48:29;;;;;;;4.35;1.07;;;;;;;21.83;58.69;101257.55;1649780;85;22244;-76
2022/06/14 05:51:01;;;;;;;2.40;1.02;;;;;;;22.10;58.46;101261.81;1631288;87;21088;-77
2022/06/14 05:53:50;;;;;;;5.03;1.07;;;;;;;22.26;57.96;101260.52;1645251;85;21155;-77
2022/06/14 05:56:31;;;;;;;3.33;1.50;;;;;;;22.41;57.49;101252.60;1670833;84;21552;-77
2022/06/14 05:59:09;;;;;;;3.00;1.27;;;;;;;22.50;57.71;101254.34;1666376;84;21070;-76
2022/06/14 06:01:48;;;;;;;5.42;1.10;;;;;;;22.83;57.66;101254.28;1669932;84;20899;-76
2022/06/14 06:04:32;;;;;;;2.87;1.15;;;;;;;23.09;57.25;101254.92;1672335;84;20936;-77
2022/06/14 06:07:03;;;;;;;5.33;0.98;;;;;;;23.43;57.15;101255.09;1659653;84;20932;-77
2022/06/14 06:09:47;;;;;;;1.72;0.88;;;;;;;23.72;56.49;101258.66;1677968;84;21773;-77
2022/06/14 06:12:43;;;;;;;3.15;0.78;;;;;;;23.95;56.40;101257.23;1687249;84;20964;-77
2022/06/14 06:15:27;;;;;;;3.02;1.10;;;;;;;24.34;56.02;101253.94;1661031;84;20981;-77
2022/06/14 06:18:08;;;;;;;6.08;1.22;;;;;;;24.73;55.83;101246.55;1675852;84;20913;-77
2022/06/14 06:20:51;;;;;;;2.27;0.93;;;;;;;25.10;55.49;101249.42;1663336;84;20923;-78
2022/06/14 06:23:33;;;;;;;2.45;0.90;;;;;;;25.48;55.11;101246.81;1692934;84;21456;-78
2022/06/14 06:25:59;;;;;;;5.00;1.27;;;;;;;25.79;54.95;101254.37;1688828;84;20896;-78
2022/06/14 06:28:32;;;;;;;4.17;1.22;;;;;;;25.98;54.33;101258.77;1673055;83;20974;-78
2022/06/14 06:31:10;;;;;;;4.87;1.45;;;;;;;26.22;54.53;101253.51;1670034;84;20930;-78
2022/06/14 06:33:41;;;;;;;4.17;1.35;;;;;;;26.42;53.62;101248.61;1662202;84;20890;-77
2022/06/14 06:36:33;;;;;;;3.55;1.37;;;;;;;26.66;53.02;101253.44;1677532;84;20975;-77
2022/06/14 06:39:30;;;;;;;4.85;1.20;;;;;;;26.98;52.86;101263.88;1686815;84;20958;-77
2022/06/14 06:42:19;;;;;;;6.60;0.93;;;;;;;27.29;52.65;101267.71;1660701;85;20934;-77
2022/06/14 06:45:08;;;;;;;5.65;1.30;;;;;;;26.58;51.30;101266.41;1680260;83;20983;-77
2022/06/14 06:48:01;;;;;;;2.65;1.05;;;;;;;26.01;51.28;101269.60;1676708;84;20974;-78
2022/06/14 06:50:43;;;;;;;3.10;1.00;;;;;;;25.45;50.67;101266.44;1699517;83;20922;-78
2022/06/14 06:53:22;;;;;;;4.03;1.57;;;;;;;25.12;50.33;101259.43;1674902;83;21003;-78
2022/06/14 06:56:03;;;;;;;4.35;1.20;;;;;;;24.58;49.92;101270.86;1666862;84;21490;-77
2022/06/14 06:58:40;;;;;;;5.00;1.65;;;;;;;24.38;49.39;101271.30;1649850;84;20989;-77
2022/06/14 07:01:17;;;;;;;4.20;1.10;;;;;;;23.62;48.50;101279.49;1674026;84;20980;-77
2022/06/14 07:03:54;;;;;;;3.65;0.93;;;;;;;23.13;47.97;101277.55;1664525;84;20976;-76
2022/06/14 07:06:39;;;;;;;1.65;0.78;;;;;;;22.67;48.40;101268.77;1667119;84;20940;-77
2022/06/14 07:09:16;;;;;;;2.85;1.00;;;;;;;22.63;48.10;101274.67;1677819;84;20951;-77
2022/06/14 07:11:57;;;;;;;3.47;0.72;;;;;;;22.34;47.64;101275.45;1661976;84;21457;-77
2022/06/14 07:14:31;;;;;;;3.55;0.90;;;;;;;22.32;47.60;101278.64;1650371;85;20983;-76
2022/06/14 07:17:23;;;;;;;4.35;1.10;;;;;;;22.16;47.09;101279.08;1673477;84;20956;-76
2022/06/14 07:20:00;;;;;;;4.62;0.98;;;;;;;21.91;46.61;101272.44;1667249;83;20976;-77
2022/06/14 07:22:53;;;;;;;3.10;1.10;;;;;;;21.39;46.32;101269.03;1663506;84;20987;-77
2022/06/14 07:25:30;;;;;;;2.77;1.17;;;;;;;21.09;46.23;101272.26;1657765;85;20962;-77
2022/06/14 07:28:14;;;;;;;3.10;0.98;;;;;;;20.79;45.48;101264.58;1650480;85;20962;-77
2022/06/14 07:30:54;;;;;;;2.10;0.60;;;;;;;20.44;45.67;101276.74;1645680;85;20966;-76
2022/06/14 07:33:24;;;;;;;2.77;0.98;;;;;;;20.24;45.43;101273.72;1647847;85;20955;-77
2022/06/14 07:35:57;;;;;;;4.85;0.95;;;;;;;20.16;45.19;101276.69;1647850;85;20974;-77
2022/06/14 07:38:37;;;;;;;4.47;0.82;;;;;;;20.00;45.09;101283.55;1645690;85;20938;-77
2022/06/14 07:41:30;;;;;;;3.58;1.12;;;;;;;19.92;45.20;101283.48;1648711;85;20891;-77
2022/06/14 07:44:17;;;;;;;2.62;1.10;;;;;;;20.03;45.14;101283.86;1646581;85;20934;-77
2022/06/14 07:47:01;;;;;;;;;;;;;;;20.16;44.86;101278.45;1648486;85;20967;-78
2022/06/14 07:50:02;;;;;;;5.53;1.10;;;;;;;20.26;44.20;101285.00;1641034;85;20127;-76
2022/06/14 07:52:48;;;;;;;2.50;0.82;;;;;;;20.37;44.46;101283.17;1652465;85;20974;-77
2022/06/14 07:55:34;;;;;;;3.37;1.00;;;;;;;20.33;44.23;101290.34;1641300;85;20961;-77
2022/06/14 07:58:14;;;;;;;5.00;1.10;;;;;;;20.17;44.34;101288.05;1620595;85;21023;-77
2022/06/14 08:04:07;;;;;;;2.42;0.90;;;;;;;19.99;44.23;101284.92;1641492;86;20969;-77
2022/06/14 08:06:39;;;;;;;4.20;1.12;;;;;;;19.97;44.04;101286.77;1642977;85;20947;-77
2022/06/14 08:09:40;;;;;;;3.15;0.80;;;;;;;19.97;44.13;101289.39;1645287;85;20977;-77
2022/06/14 08:12:28;;;;;;;7.00;1.37;;;;;;;20.02;43.96;101286.09;1645421;86;20934;-77
2022/06/14 08:14:59;;;;;;;3.50;0.80;;;;;;;20.09;44.07;101291.47;1621129;86;21447;-77
2022/06/14 08:17:51;;;;;;;2.87;1.00;;;;;;;20.13;44.12;101280.77;1662198;85;20904;-77
2022/06/14 08:20:31;;;;;;;5.17;1.07;;;;;;;20.20;43.89;101286.59;1660073;85;20987;-77
2022/06/14 08:23:03;;;;;;;1.65;0.70;;;;;;;20.24;43.94;101284.22;1663606;85;20942;-77
2022/06/14 08:25:37;;;;;;;3.77;1.02;;;;;;;20.22;43.65;101289.15;1646224;85;21046;-77
2022/06/14 08:28:15;;;;;;;1.85;0.80;;;;;;;20.16;43.31;101284.56;1652859;85;21535;-77
2022/06/14 08:30:50;;;;;;;2.52;0.80;;;;;;;20.10;43.64;101286.16;1624508;86;21050;-76
2022/06/14 08:33:22;;;;;;;3.47;1.32;;;;;;;20.24;43.61;101293.41;1619657;86;20931;-76
2022/06/14 08:35:55;;;;;;;1.67;0.85;;;;;;;20.38;43.50;101288.84;1618149;87;21291;-76
2022/06/14 08:38:49;;;;;;;3.25;0.82;;;;;;;20.48;43.25;101294.92;1611281;87;21091;-76
2022/06/14 08:41:49;;;;;;;5.35;0.70;;;;;;;20.51;43.23;101308.84;1621318;88;21132;-77
2022/06/14 08:44:23;;;;;;;3.58;0.72;;;;;;;20.44;43.09;101307.81;1609077;85;21086;-76
2022/06/14 08:47:27;;;;;;;2.12;0.57;;;;;;;20.34;43.24;101305.17;1597875;89;20976;-77
2022/06/14 08:50:37;;;;;;;2.77;0.80;;;;;;;20.25;42.99;101300.83;1626087;86;21105;-77
2022/06/14 08:53:42;;;;;;;4.53;0.88;;;;;;;20.03;42.71;101299.16;1626087;88;21570;-76
2022/06/14 08:56:33;;;;;;;2.72;0.70;;;;;;;19.90;42.85;101307.64;1614332;88;21112;-77
2022/06/14 08:59:31;;;;;;;3.17;0.98;;;;;;;19.79;42.58;101306.33;1594698;88;21509;-77
2022/06/14 09:02:45;;;;;;;3.25;1.10;;;;;;;19.70;42.71;101305.44;1594449;89;21634;-77
2022/06/14 09:05:33;;;;;;;1.80;0.72;;;;;;;19.70;42.79;101305.91;1627733;85;20910;-77
2022/06/14 09:08:37;;;;;;;2.67;1.17;;;;;;;19.76;42.83;101303.84;1630527;86;20886;-77
2022/06/14 09:11:12;;;;;;;2.00;0.95;;;;;;;19.83;42.67;101296.55;1638518;86;21163;-77
2022/06/14 09:14:05;;;;;;;5.30;0.93;;;;;;;19.77;42.52;101302.92;1643325;86;21132;-77
2022/06/14 09:17:06;;;;;;;1.80;0.75;;;;;;;19.81;42.61;101301.02;1651461;84;21438;-77
2022/06/14 09:20:04;;;;;;;3.45;0.82;;;;;;;19.94;42.57;101303.95;1639994;86;20986;-77
2022/06/14 09:22:53;;;;;;;4.58;1.05;;;;;;;20.10;42.73;101306.30;1639056;85;20926;-76
2022/06/14 09:26:09;;;;;;;2.12;0.80;;;;;;;20.20;42.33;101298.41;1648888;85;20894;-76
2022/06/14 09:29:21;;;;;;;4.22;0.95;;;;;;;20.03;42.25;101299.16;1663923;85;21352;-76
2022/06/14 09:32:10;;;;;;;3.70;1.17;;;;;;;19.82;42.40;101310.59;1658755;85;21008;-76
2022/06/14 09:34:53;;;;;;;2.50;0.70;;;;;;;19.74;42.36;101304.39;1670297;85;20928;-76
2022/06/14 09:37:49;;;;;;;2.65;1.00;;;;;;;19.69;42.24;101306.36;1651796;85;20882;-76
2022/06/14 09:40:49;;;;;;;5.28;0.80;;;;;;;19.68;42.35;101299.41;1660773;84;20953;-76
2022/06/14 09:43:42;;;;;;;3.05;1.00;;;;;;;19.83;42.28;101303.11;1636883;86;20894;-76
2022/06/14 09:46:32;;;;;;;3.00;0.85;;;;;;;19.93;42.40;101297.86;1633110;85;20882;-76
2022/06/14 09:49:10;;;;;;;2.65;0.82;;;;;;;20.06;42.31;101294.23;1645833;86;20926;-76
2022/06/14 09:52:00;;;;;;;5.95;1.00;;;;;;;20.08;42.29;101299.81;1642340;86;20993;-76
2022/06/14 09:54:54;;;;;;;4.65;1.00;;;;;;;20.17;42.08;101297.23;1633853;86;21548;-76
2022/06/14 09:57:48;;;;;;;1.45;0.80;;;;;;;20.07;42.08;101303.81;1629853;86;20938;-77
2022/06/14 10:00:49;;;;;;;3.27;1.05;;;;;;;19.97;42.13;101303.83;1586398;89;21020;-77
2022/06/14 10:03:56;;;;;;;3.05;1.00;;;;;;;19.77;41.71;101308.63;1629771;87;20952;-77
2022/06/14 10:07:07;;;;;;;3.33;1.00;;;;;;;19.46;41.98;101315.63;1615510;85;21384;-76
2022/06/14 10:09:50;;;;;;;2.45;0.90;;;;;;;19.23;42.08;101322.30;1640388;87;21376;-76
2022/06/14 10:12:46;;;;;;;4.33;1.00;;;;;;;19.15;42.15;101319.98;1636338;85;20987;-76
2022/06/14 10:15:21;;;;;;;2.75;0.75;;;;;;;19.13;42.23;101320.50;1603785;88;20992;-76
2022/06/14 10:18:08;;;;;;;5.35;1.25;;;;;;;19.18;42.19;101319.86;1629819;87;21606;-76
2022/06/14 10:21:01;;;;;;;;;;;;;;;19.24;42.19;101313.48;1654352;86;20977;-76
2022/06/14 10:23:38;;;;;;;2.37;0.68;;;;;;;19.20;42.00;101318.03;1630666;86;20156;-76
2022/06/14 10:29:49;;;;;;;2.30;0.88;;;;;;;18.95;42.09;101312.91;1648777;85;21542;-76
2022/06/14 10:33:13;;;;;;;2.80;0.90;;;;;;;18.88;42.25;101309.28;1660179;85;21053;-77
2022/06/14 10:36:03;;;;;;;3.55;0.80;;;;;;;18.89;42.25;101313.61;1687088;83;21510;-76
2022/06/14 10:38:52;;;;;;;4.50;1.20;;;;;;;18.90;42.21;101316.17;1674021;84;21080;-76
2022/06/14 10:41:35;;;;;;;2.55;0.75;;;;;;;18.89;42.23;101309.68;1670056;84;21028;-76
2022/06/14 10:44:42;;;;;;;5.30;1.20;;;;;;;18.85;42.24;101308.95;1680814;84;21124;-76
2022/06/14 10:47:55;;;;;;;2.33;0.80;;;;;;;18.77;42.22;101316.25;1670796;85;21043;-77
2022/06/14 10:51:03;;;;;;;2.80;0.80;;;;;;;18.72;42.25;101313.80;1684301;84;21055;-76
2022/06/14 10:53:55;;;;;;;6.53;1.30;;;;;;;18.67;42.33;101318.40;1666746;85;21515;-76
2022/06/14 10:57:02;;;;;;;4.28;1.00;;;;;;;18.71;42.35;101317.38;1643899;86;21005;-77
2022/06/14 11:00:08;;;;;;;6.45;1.00;;;;;;;18.68;42.33;101320.56;1665519;84;21668;-76
2022/06/14 11:03:02;;;;;;;2.80;0.88;;;;;;;18.64;42.47;101318.52;1648835;84;21517;-76
2022/06/14 11:05:57;;;;;;;3.83;1.27;;;;;;;18.55;42.43;101317.52;1684749;84;20972;-76
2022/06/14 11:08:41;;;;;;;4.10;1.07;;;;;;;18.48;42.54;101326.52;1649271;85;20953;-76
2022/06/14 11:11:37;;;;;;;3.35;0.85;;;;;;;18.42;42.57;101333.30;1619557;88;21645;-76
2022/06/14 11:14:32;;;;;;;5.47;1.00;;;;;;;18.44;42.69;101331.02;1624928;86;20952;-76
2022/06/14 11:17:25;;;;;;;4.12;0.95;;;;;;;18.45;42.68;101328.80;1657146;84;21545;-76
2022/06/14 11:20:28;;;;;;;3.30;1.25;;;;;;;18.52;42.75;101328.97;1666379;84;21439;-77
2022/06/14 11:23:07;;;;;;;8.33;1.72;;;;;;;18.66;42.84;101331.55;1644494;85;21490;-77
2022/06/14 11:26:07;;;;;;;4.17;1.35;;;;;;;18.88;42.96;101325.86;1679884;84;20926;-77
2022/06/14 11:28:44;;;;;;;3.70;0.72;;;;;;;18.96;42.90;101332.11;1651957;84;21916;-77
2022/06/14 11:31:47;;;;;;;4.08;0.78;;;;;;;19.00;42.91;101329.77;1655548;84;21392;-77
2022/06/14 11:34:59;;;;;;;3.20;0.80;;;;;;;18.91;42.88;101334.91;1678343;83;20919;-77
2022/06/14 11:37:45;;;;;;;4.62;1.10;;;;;;;18.68;42.81;101338.90;1673008;83;20962;-76
2022/06/14 11:40:23;;;;;;;1.82;0.78;;;;;;;18.49;43.00;101334.77;1676211;83;20950;-76
2022/06/14 11:43:11;;;;;;;5.00;0.90;;;;;;;18.41;43.01;101341.60;1677300;83;21423;-76
2022/06/14 11:46:00;;;;;;;3.05;1.40;;;;;;;18.35;43.09;101337.05;1673306;83;20946;-77
2022/06/14 11:48:37;;;;;;;4.97;1.27;;;;;;;18.43;43.25;101339.78;1664985;83;21481;-77
2022/06/14 11:51:29;;;;;;;5.37;1.05;;;;;;;18.59;43.22;101332.67;1673382;83;20914;-77
2022/06/14 11:54:25;;;;;;;4.92;1.35;;;;;;;18.67;43.25;101328.87;1678472;83;21493;-77
2022/06/14 11:57:09;;;;;;;2.60;0.80;;;;;;;18.78;43.26;101327.98;1678267;83;21454;-76
2022/06/14 11:59:56;;;;;;;4.35;0.93;;;;;;;18.91;43.25;101327.51;1676414;83;21430;-77
2022/06/14 12:02:33;;;;;;;4.75;1.05;;;;;;;19.03;43.27;101329.65;1679021;83;21486;-77
2022/06/14 12:05:22;;;;;;;3.37;0.95;;;;;;;19.16;43.26;101329.09;1684219;83;21507;-77
2022/06/14 12:07:56;;;;;;;3.10;1.12;;;;;;;19.23;43.23;101332.33;1656419;83;21365;-77
2022/06/14 12:10:49;;;;;;;3.02;1.00;;;;;;;19.31;43.29;101336.77;1669844;83;20950;-77
2022/06/14 12:13:33;;;;;;;4.40;1.00;;;;;;;19.34;43.23;101337.96;1677862;83;20962;-77
2022/06/14 12:16:03;;;;;;;4.40;0.88;;;;;;;19.28;43.20;101340.83;1672936;83;21505;-77
2022/06/14 12:18:34;;;;;;;5.85;1.10;;;;;;;19.16;43.19;101336.11;1674413;83;21408;-77
2022/06/14 12:21:14;;;;;;;5.12;1.00;;;;;;;19.00;43.16;101332.39;1677064;83;20914;-77
2022/06/14 12:23:48;;;;;;;4.33;1.00;;;;;;;18.83;43.23;101346.14;1672863;83;21629;-77
2022/06/14 12:26:35;;;;;;;10.20;0.95;;;;;;;18.63;43.23;101333.84;1675386;83;21457;-76
2022/06/14 12:29:21;;;;;;;3.17;1.17;;;;;;;18.55;43.34;101340.23;1678253;83;21590;-76
2022/06/14 12:32:02;;;;;;;2.50;1.10;;;;;;;18.50;43.32;101343.03;1670928;83;21347;-76
2022/06/14 12:34:37;;;;;;;2.27;0.80;;;;;;;18.51;43.45;101349.97;1683037;83;20919;-76
2022/06/14 12:37:23;;;;;;;3.42;0.90;;;;;;;18.59;43.43;101347.07;1688409;83;21529;-77
2022/06/14 12:40:34;;;;;;;3.67;1.10;;;;;;;18.72;43.53;101341.77;1633669;85;20983;-77
2022/06/14 12:43:26;;;;;;;2.62;0.93;;;;;;;18.72;43.42;101345.25;1632174;85;21067;-77
2022/06/14 12:46:11;;;;;;;3.10;0.88;;;;;;;18.68;43.45;101352.00;1648939;85;20988;-78
2022/06/14 12:49:01;;;;;;;3.35;0.98;;;;;;;18.51;43.35;101347.36;1636816;85;20938;-77
2022/06/14 12:51:39;;;;;;;7.05;1.27;;;;;;;18.43;43.43;101354.64;1630208;85;20988;-77
2022/06/14 12:54:23;;;;;;;3.25;0.90;;;;;;;18.38;43.52;101351.33;1629170;85;21408;-77
2022/06/14 12:57:20;;;;;;;4.75;0.90;;;;;;;18.39;43.58;101347.34;1624911;85;21099;-77
2022/06/14 13:00:17;;;;;;;2.10;0.70;;;;;;;18.43;43.57;101346.33;1624403;86;20980;-77
2022/06/14 13:02:49;;;;;;;2.20;0.80;;;;;;;18.49;43.63;101340.02;1627054;86;20926;-77